sensor_id;sensor_type;location;lat;lon;timestamp;temperature;humidity
20714;DHT22;10518;50.742;4.226;2023-02-15T00:01:24;3.20;99.90
20714;DHT22;10518;50.742;4.226;2023-02-15T00:03:50;3.20;99.90
20714;DHT22;10518;50.742;4.226;2023-02-15T00:06:17;3.20;99.90
20714;DHT22;10518;50.742;4.226;2023-02-15T00:08:43;3.20;99.90
20714;DHT22;10518;50.742;4.226;2023-02-15T00:11:11;3.30;99.90
20714;DHT22;10518;50.742;4.226;2023-02-15T00:13:37;3.10;99.90
20714;DHT22;10518;50.742;4.226;2023-02-15T00:16:09;3.20;99.90
20714;DHT22;10518;50.742;4.226;2023-02-15T00:18:35;3.20;99.90
20714;DHT22;10518;50.742;4.226;2023-02-15T00:21:06;3.10;99.90
20714;DHT22;10518;50.742;4.226;2023-02-15T00:23:32;3.10;99.90
20714;DHT22;10518;50.742;4.226;2023-02-15T00:26:09;3.10;99.90
20714;DHT22;10518;50.742;4.226;2023-02-15T00:28:35;3.00;99.90
20714;DHT22;10518;50.742;4.226;2023-02-15T00:31:08;3.10;99.90
20714;DHT22;10518;50.742;4.226;2023-02-15T00:33:35;3.10;99.90
20714;DHT22;10518;50.742;4.226;2023-02-15T00:36:01;3.10;99.90
20714;DHT22;10518;50.742;4.226;2023-02-15T00:38:28;3.10;99.90
20714;DHT22;10518;50.742;4.226;2023-02-15T00:40:55;3.10;99.90
20714;DHT22;10518;50.742;4.226;2023-02-15T00:43:21;3.00;99.90
20714;DHT22;10518;50.742;4.226;2023-02-15T00:45:47;3.00;99.90
20714;DHT22;10518;50.742;4.226;2023-02-15T00:48:13;3.00;99.90
20714;DHT22;10518;50.742;4.226;2023-02-15T00:50:39;2.90;99.90
20714;DHT22;10518;50.742;4.226;2023-02-15T00:53:05;3.00;99.90
20714;DHT22;10518;50.742;4.226;2023-02-15T00:55:30;2.90;99.90
20714;DHT22;10518;50.742;4.226;2023-02-15T00:57:56;2.90;99.90
20714;DHT22;10518;50.742;4.226;2023-02-15T01:00:21;2.80;99.90
20714;DHT22;10518;50.742;4.226;2023-02-15T01:02:47;2.80;99.90
20714;DHT22;10518;50.742;4.226;2023-02-15T01:05:13;2.80;99.90
20714;DHT22;10518;50.742;4.226;2023-02-15T01:07:38;2.80;99.90
20714;DHT22;10518;50.742;4.226;2023-02-15T01:10:07;2.70;99.90
20714;DHT22;10518;50.742;4.226;2023-02-15T01:12:33;2.70;99.90
20714;DHT22;10518;50.742;4.226;2023-02-15T01:14:59;2.70;99.90
20714;DHT22;10518;50.742;4.226;2023-02-15T01:17:25;2.70;99.90
20714;DHT22;10518;50.742;4.226;2023-02-15T01:19:51;2.70;99.90
20714;DHT22;10518;50.742;4.226;2023-02-15T01:22:17;2.70;99.90
20714;DHT22;10518;50.742;4.226;2023-02-15T01:24:43;2.60;99.90
20714;DHT22;10518;50.742;4.226;2023-02-15T01:27:09;2.60;99.90
20714;DHT22;10518;50.742;4.226;2023-02-15T01:29:35;2.60;99.90
20714;DHT22;10518;50.742;4.226;2023-02-15T01:32:00;2.50;99.90
20714;DHT22;10518;50.742;4.226;2023-02-15T01:34:26;2.50;99.90
20714;DHT22;10518;50.742;4.226;2023-02-15T01:36:52;2.50;99.90
20714;DHT22;10518;50.742;4.226;2023-02-15T01:39:17;2.50;99.90
20714;DHT22;10518;50.742;4.226;2023-02-15T01:41:43;2.40;99.90
20714;DHT22;10518;50.742;4.226;2023-02-15T01:44:49;2.30;99.90
20714;DHT22;10518;50.742;4.226;2023-02-15T01:47:39;2.30;99.90
20714;DHT22;10518;50.742;4.226;2023-02-15T01:50:11;2.30;99.90
20714;DHT22;10518;50.742;4.226;2023-02-15T01:52:41;2.20;99.90
20714;DHT22;10518;50.742;4.226;2023-02-15T01:55:08;2.30;99.90
20714;DHT22;10518;50.742;4.226;2023-02-15T01:57:34;2.30;99.90
20714;DHT22;10518;50.742;4.226;2023-02-15T02:00:04;2.20;99.90
20714;DHT22;10518;50.742;4.226;2023-02-15T02:02:31;2.30;99.90
20714;DHT22;10518;50.742;4.226;2023-02-15T02:05:00;2.20;99.90
20714;DHT22;10518;50.742;4.226;2023-02-15T02:07:34;2.20;99.90
20714;DHT22;10518;50.742;4.226;2023-02-15T02:10:02;2.20;99.90
20714;DHT22;10518;50.742;4.226;2023-02-15T02:12:28;2.20;99.90
20714;DHT22;10518;50.742;4.226;2023-02-15T02:14:54;2.20;99.90
20714;DHT22;10518;50.742;4.226;2023-02-15T02:25:32;2.10;99.90
20714;DHT22;10518;50.742;4.226;2023-02-15T02:37:34;2.10;99.90
20714;DHT22;10518;50.742;4.226;2023-02-15T02:42:06;2.00;99.90
20714;DHT22;10518;50.742;4.226;2023-02-15T02:47:09;2.00;99.90
20714;DHT22;10518;50.742;4.226;2023-02-15T02:49:39;2.00;99.90
20714;DHT22;10518;50.742;4.226;2023-02-15T02:55:07;1.90;99.90
20714;DHT22;10518;50.742;4.226;2023-02-15T02:57:35;1.90;99.90
20714;DHT22;10518;50.742;4.226;2023-02-15T03:00:05;2.00;99.90
20714;DHT22;10518;50.742;4.226;2023-02-15T03:02:39;2.00;99.90
20714;DHT22;10518;50.742;4.226;2023-02-15T03:05:10;2.00;99.90
20714;DHT22;10518;50.742;4.226;2023-02-15T03:07:37;2.00;99.90
20714;DHT22;10518;50.742;4.226;2023-02-15T03:10:05;2.00;99.90
20714;DHT22;10518;50.742;4.226;2023-02-15T03:12:34;1.90;99.90
20714;DHT22;10518;50.742;4.226;2023-02-15T03:15:06;1.90;99.90
20714;DHT22;10518;50.742;4.226;2023-02-15T03:17:36;1.90;99.90
20714;DHT22;10518;50.742;4.226;2023-02-15T03:20:24;1.80;99.90
20714;DHT22;10518;50.742;4.226;2023-02-15T03:23:15;1.80;99.90
20714;DHT22;10518;50.742;4.226;2023-02-15T03:25:45;1.80;99.90
20714;DHT22;10518;50.742;4.226;2023-02-15T03:28:15;1.80;99.90
20714;DHT22;10518;50.742;4.226;2023-02-15T03:30:45;1.80;99.90
20714;DHT22;10518;50.742;4.226;2023-02-15T03:33:14;1.70;99.90
20714;DHT22;10518;50.742;4.226;2023-02-15T03:35:53;1.70;99.90
20714;DHT22;10518;50.742;4.226;2023-02-15T03:38:29;1.70;99.90
20714;DHT22;10518;50.742;4.226;2023-02-15T03:40:59;1.70;99.90
20714;DHT22;10518;50.742;4.226;2023-02-15T03:49:49;1.70;99.90
20714;DHT22;10518;50.742;4.226;2023-02-15T03:51:55;1.70;99.90
20714;DHT22;10518;50.742;4.226;2023-02-15T03:54:24;1.60;99.90
20714;DHT22;10518;50.742;4.226;2023-02-15T03:59:59;1.60;99.90
20714;DHT22;10518;50.742;4.226;2023-02-15T04:05:21;1.50;99.90
20714;DHT22;10518;50.742;4.226;2023-02-15T04:07:46;1.50;99.90
20714;DHT22;10518;50.742;4.226;2023-02-15T04:10:12;1.50;99.90
20714;DHT22;10518;50.742;4.226;2023-02-15T04:12:56;1.50;99.90
20714;DHT22;10518;50.742;4.226;2023-02-15T04:15:22;1.50;99.90
20714;DHT22;10518;50.742;4.226;2023-02-15T04:18:06;1.60;99.90
20714;DHT22;10518;50.742;4.226;2023-02-15T04:20:32;1.60;99.90
20714;DHT22;10518;50.742;4.226;2023-02-15T04:23:16;1.60;99.90
20714;DHT22;10518;50.742;4.226;2023-02-15T04:26:03;1.60;99.90
20714;DHT22;10518;50.742;4.226;2023-02-15T04:28:30;1.60;99.90
20714;DHT22;10518;50.742;4.226;2023-02-15T04:30:55;1.60;99.90
20714;DHT22;10518;50.742;4.226;2023-02-15T04:33:21;1.60;99.90
20714;DHT22;10518;50.742;4.226;2023-02-15T04:35:46;1.50;99.90
20714;DHT22;10518;50.742;4.226;2023-02-15T04:38:12;1.50;99.90
20714;DHT22;10518;50.742;4.226;2023-02-15T04:40:37;1.60;99.90
20714;DHT22;10518;50.742;4.226;2023-02-15T04:43:03;1.60;99.90
20714;DHT22;10518;50.742;4.226;2023-02-15T04:45:28;1.50;99.90
20714;DHT22;10518;50.742;4.226;2023-02-15T04:47:54;1.50;99.90
20714;DHT22;10518;50.742;4.226;2023-02-15T04:50:20;1.60;99.90
20714;DHT22;10518;50.742;4.226;2023-02-15T04:52:45;1.50;99.90
20714;DHT22;10518;50.742;4.226;2023-02-15T04:55:11;1.50;99.90
20714;DHT22;10518;50.742;4.226;2023-02-15T04:57:36;1.60;99.90
20714;DHT22;10518;50.742;4.226;2023-02-15T05:00:02;1.60;99.90
20714;DHT22;10518;50.742;4.226;2023-02-15T05:02:28;1.60;99.90
20714;DHT22;10518;50.742;4.226;2023-02-15T05:04:54;1.50;99.90
20714;DHT22;10518;50.742;4.226;2023-02-15T05:07:19;1.50;99.90
20714;DHT22;10518;50.742;4.226;2023-02-15T05:09:45;1.50;99.90
20714;DHT22;10518;50.742;4.226;2023-02-15T05:12:11;1.50;99.90
20714;DHT22;10518;50.742;4.226;2023-02-15T05:14:37;1.50;99.90
20714;DHT22;10518;50.742;4.226;2023-02-15T05:17:02;1.50;99.90
20714;DHT22;10518;50.742;4.226;2023-02-15T05:19:28;1.50;99.90
20714;DHT22;10518;50.742;4.226;2023-02-15T05:21:54;1.40;99.90
20714;DHT22;10518;50.742;4.226;2023-02-15T05:24:20;1.40;99.90
20714;DHT22;10518;50.742;4.226;2023-02-15T05:27:04;1.40;99.90
20714;DHT22;10518;50.742;4.226;2023-02-15T05:29:49;1.50;99.90
20714;DHT22;10518;50.742;4.226;2023-02-15T05:32:14;1.40;99.90
20714;DHT22;10518;50.742;4.226;2023-02-15T05:34:40;1.50;99.90
20714;DHT22;10518;50.742;4.226;2023-02-15T05:37:05;1.40;99.90
20714;DHT22;10518;50.742;4.226;2023-02-15T05:39:32;1.50;99.90
20714;DHT22;10518;50.742;4.226;2023-02-15T05:41:59;1.50;99.90
20714;DHT22;10518;50.742;4.226;2023-02-15T05:44:25;1.50;99.90
20714;DHT22;10518;50.742;4.226;2023-02-15T05:46:50;1.40;99.90
20714;DHT22;10518;50.742;4.226;2023-02-15T05:49:16;1.50;99.90
20714;DHT22;10518;50.742;4.226;2023-02-15T05:51:41;1.50;99.90
20714;DHT22;10518;50.742;4.226;2023-02-15T05:54:07;1.50;99.90
20714;DHT22;10518;50.742;4.226;2023-02-15T05:56:33;1.50;99.90
20714;DHT22;10518;50.742;4.226;2023-02-15T05:58:58;1.50;99.90
20714;DHT22;10518;50.742;4.226;2023-02-15T06:01:24;1.50;99.90
20714;DHT22;10518;50.742;4.226;2023-02-15T06:03:50;1.50;99.90
20714;DHT22;10518;50.742;4.226;2023-02-15T06:06:16;1.50;99.90
20714;DHT22;10518;50.742;4.226;2023-02-15T06:08:42;1.50;99.90
20714;DHT22;10518;50.742;4.226;2023-02-15T06:11:07;1.50;99.90
20714;DHT22;10518;50.742;4.226;2023-02-15T06:13:34;1.60;99.90
20714;DHT22;10518;50.742;4.226;2023-02-15T06:16:00;1.60;99.90
20714;DHT22;10518;50.742;4.226;2023-02-15T06:18:25;1.50;99.90
20714;DHT22;10518;50.742;4.226;2023-02-15T06:20:51;1.60;99.90
20714;DHT22;10518;50.742;4.226;2023-02-15T06:23:17;1.60;99.90
20714;DHT22;10518;50.742;4.226;2023-02-15T06:25:44;1.70;99.90
20714;DHT22;10518;50.742;4.226;2023-02-15T06:28:10;1.60;99.90
20714;DHT22;10518;50.742;4.226;2023-02-15T06:30:36;1.60;99.90
20714;DHT22;10518;50.742;4.226;2023-02-15T06:33:01;1.60;99.90
20714;DHT22;10518;50.742;4.226;2023-02-15T06:35:27;1.50;99.90
20714;DHT22;10518;50.742;4.226;2023-02-15T06:37:53;1.50;99.90
20714;DHT22;10518;50.742;4.226;2023-02-15T06:40:18;1.50;99.90
20714;DHT22;10518;50.742;4.226;2023-02-15T06:42:44;1.50;99.90
20714;DHT22;10518;50.742;4.226;2023-02-15T06:45:11;1.50;99.90
20714;DHT22;10518;50.742;4.226;2023-02-15T06:47:37;1.50;99.90
20714;DHT22;10518;50.742;4.226;2023-02-15T06:50:04;1.60;99.90
20714;DHT22;10518;50.742;4.226;2023-02-15T06:52:30;1.50;99.90
20714;DHT22;10518;50.742;4.226;2023-02-15T06:54:55;1.60;99.90
20714;DHT22;10518;50.742;4.226;2023-02-15T06:57:21;1.60;99.90
20714;DHT22;10518;50.742;4.226;2023-02-15T06:59:47;1.60;99.90
20714;DHT22;10518;50.742;4.226;2023-02-15T07:02:12;1.60;99.90
20714;DHT22;10518;50.742;4.226;2023-02-15T07:04:38;1.60;99.90
20714;DHT22;10518;50.742;4.226;2023-02-15T07:07:04;1.70;99.90
20714;DHT22;10518;50.742;4.226;2023-02-15T07:09:32;1.70;99.90
20714;DHT22;10518;50.742;4.226;2023-02-15T07:11:58;1.70;99.90
20714;DHT22;10518;50.742;4.226;2023-02-15T07:14:42;1.70;99.90
20714;DHT22;10518;50.742;4.226;2023-02-15T07:17:08;1.70;99.90
20714;DHT22;10518;50.742;4.226;2023-02-15T07:19:33;1.80;99.90
20714;DHT22;10518;50.742;4.226;2023-02-15T07:21:59;1.80;99.90
20714;DHT22;10518;50.742;4.226;2023-02-15T07:24:25;1.90;99.90
20714;DHT22;10518;50.742;4.226;2023-02-15T07:26:50;1.90;99.90
20714;DHT22;10518;50.742;4.226;2023-02-15T07:29:16;2.00;99.90
20714;DHT22;10518;50.742;4.226;2023-02-15T07:31:42;2.10;99.90
20714;DHT22;10518;50.742;4.226;2023-02-15T07:34:11;2.10;99.90
20714;DHT22;10518;50.742;4.226;2023-02-15T07:36:37;2.20;99.90
20714;DHT22;10518;50.742;4.226;2023-02-15T07:39:03;2.30;99.90
20714;DHT22;10518;50.742;4.226;2023-02-15T07:41:28;2.30;99.90
20714;DHT22;10518;50.742;4.226;2023-02-15T07:43:54;2.40;99.90
20714;DHT22;10518;50.742;4.226;2023-02-15T07:46:20;2.40;99.90
20714;DHT22;10518;50.742;4.226;2023-02-15T07:48:46;2.40;99.90
20714;DHT22;10518;50.742;4.226;2023-02-15T07:51:13;2.40;99.90
20714;DHT22;10518;50.742;4.226;2023-02-15T07:53:40;2.50;99.90
20714;DHT22;10518;50.742;4.226;2023-02-15T07:56:13;2.50;99.90
20714;DHT22;10518;50.742;4.226;2023-02-15T07:58:39;2.50;99.90
20714;DHT22;10518;50.742;4.226;2023-02-15T08:03:46;2.70;99.90
20714;DHT22;10518;50.742;4.226;2023-02-15T08:06:11;2.70;99.90
20714;DHT22;10518;50.742;4.226;2023-02-15T08:08:38;2.80;99.90
20714;DHT22;10518;50.742;4.226;2023-02-15T08:11:25;2.90;99.90
20714;DHT22;10518;50.742;4.226;2023-02-15T08:14:17;2.90;99.90
20714;DHT22;10518;50.742;4.226;2023-02-15T08:16:49;3.00;99.90
20714;DHT22;10518;50.742;4.226;2023-02-15T08:19:24;3.10;99.90
20714;DHT22;10518;50.742;4.226;2023-02-15T08:22:02;3.20;99.90
20714;DHT22;10518;50.742;4.226;2023-02-15T08:24:30;3.30;99.90
20714;DHT22;10518;50.742;4.226;2023-02-15T08:26:56;3.30;99.90
20714;DHT22;10518;50.742;4.226;2023-02-15T08:29:26;3.40;99.90
20714;DHT22;10518;50.742;4.226;2023-02-15T08:31:57;3.60;99.90
20714;DHT22;10518;50.742;4.226;2023-02-15T08:34:29;3.70;99.90
20714;DHT22;10518;50.742;4.226;2023-02-15T08:36:55;3.70;99.90
20714;DHT22;10518;50.742;4.226;2023-02-15T08:39:20;3.90;99.90
20714;DHT22;10518;50.742;4.226;2023-02-15T08:41:47;4.10;99.90
20714;DHT22;10518;50.742;4.226;2023-02-15T08:44:15;4.20;99.90
20714;DHT22;10518;50.742;4.226;2023-02-15T08:46:43;4.30;99.90
20714;DHT22;10518;50.742;4.226;2023-02-15T08:49:10;4.40;99.90
20714;DHT22;10518;50.742;4.226;2023-02-15T08:51:37;4.60;99.90
20714;DHT22;10518;50.742;4.226;2023-02-15T08:54:08;4.60;99.90
20714;DHT22;10518;50.742;4.226;2023-02-15T08:56:40;4.70;99.90
20714;DHT22;10518;50.742;4.226;2023-02-15T08:59:07;4.80;99.90
20714;DHT22;10518;50.742;4.226;2023-02-15T09:01:36;4.90;99.90
20714;DHT22;10518;50.742;4.226;2023-02-15T09:04:05;5.10;99.90
20714;DHT22;10518;50.742;4.226;2023-02-15T09:06:31;5.10;99.90
20714;DHT22;10518;50.742;4.226;2023-02-15T09:08:57;5.20;99.90
20714;DHT22;10518;50.742;4.226;2023-02-15T09:11:28;5.40;99.90
20714;DHT22;10518;50.742;4.226;2023-02-15T09:13:58;5.80;99.90
20714;DHT22;10518;50.742;4.226;2023-02-15T09:16:26;6.00;99.90
20714;DHT22;10518;50.742;4.226;2023-02-15T09:18:53;6.10;99.90
20714;DHT22;10518;50.742;4.226;2023-02-15T09:21:21;6.20;99.90
20714;DHT22;10518;50.742;4.226;2023-02-15T09:23:49;6.20;99.90
20714;DHT22;10518;50.742;4.226;2023-02-15T09:26:19;6.20;99.90
20714;DHT22;10518;50.742;4.226;2023-02-15T09:28:46;6.50;99.90
20714;DHT22;10518;50.742;4.226;2023-02-15T09:31:17;6.70;99.90
20714;DHT22;10518;50.742;4.226;2023-02-15T09:33:46;6.80;99.90
20714;DHT22;10518;50.742;4.226;2023-02-15T09:38:46;7.30;99.90
20714;DHT22;10518;50.742;4.226;2023-02-15T09:41:34;7.30;99.90
20714;DHT22;10518;50.742;4.226;2023-02-15T09:49:38;7.60;99.90
20714;DHT22;10518;50.742;4.226;2023-02-15T09:52:41;7.60;99.90
20714;DHT22;10518;50.742;4.226;2023-02-15T09:55:35;7.70;99.90
20714;DHT22;10518;50.742;4.226;2023-02-15T10:01:19;8.30;99.90
20714;DHT22;10518;50.742;4.226;2023-02-15T10:03:50;8.40;99.90
20714;DHT22;10518;50.742;4.226;2023-02-15T10:06:35;8.30;99.90
20714;DHT22;10518;50.742;4.226;2023-02-15T10:11:56;8.60;99.90
20714;DHT22;10518;50.742;4.226;2023-02-15T10:15:02;8.80;99.90
20714;DHT22;10518;50.742;4.226;2023-02-15T10:23:09;8.50;99.90
20714;DHT22;10518;50.742;4.226;2023-02-15T10:28:51;9.00;99.90
20714;DHT22;10518;50.742;4.226;2023-02-15T10:36:38;9.50;99.90
20714;DHT22;10518;50.742;4.226;2023-02-15T10:42:54;10.20;99.90
20714;DHT22;10518;50.742;4.226;2023-02-15T10:45:16;10.20;99.90
20714;DHT22;10518;50.742;4.226;2023-02-15T10:50:59;9.80;99.90
20714;DHT22;10518;50.742;4.226;2023-02-15T11:01:42;10.10;99.90
20714;DHT22;10518;50.742;4.226;2023-02-15T11:04:46;9.90;99.90
20714;DHT22;10518;50.742;4.226;2023-02-15T11:07:23;10.00;99.90
20714;DHT22;10518;50.742;4.226;2023-02-15T11:10:39;10.10;99.90
20714;DHT22;10518;50.742;4.226;2023-02-15T11:12:41;10.20;99.90
20714;DHT22;10518;50.742;4.226;2023-02-15T11:15:19;10.30;99.90
20714;DHT22;10518;50.742;4.226;2023-02-15T11:18:02;10.30;99.90
20714;DHT22;10518;50.742;4.226;2023-02-15T11:20:38;10.70;99.90
20714;DHT22;10518;50.742;4.226;2023-02-15T11:23:14;10.70;99.90
20714;DHT22;10518;50.742;4.226;2023-02-15T11:25:43;10.80;99.90
20714;DHT22;10518;50.742;4.226;2023-02-15T11:28:19;11.00;99.90
20714;DHT22;10518;50.742;4.226;2023-02-15T11:30:51;11.10;99.90
20714;DHT22;10518;50.742;4.226;2023-02-15T11:33:26;11.20;99.90
20714;DHT22;10518;50.742;4.226;2023-02-15T11:36:09;11.30;99.90
20714;DHT22;10518;50.742;4.226;2023-02-15T11:38:37;11.40;99.90
20714;DHT22;10518;50.742;4.226;2023-02-15T11:41:14;11.60;99.90
20714;DHT22;10518;50.742;4.226;2023-02-15T11:46:26;11.70;99.90
20714;DHT22;10518;50.742;4.226;2023-02-15T11:48:52;11.30;99.90
20714;DHT22;10518;50.742;4.226;2023-02-15T11:51:19;11.20;99.90
20714;DHT22;10518;50.742;4.226;2023-02-15T11:53:46;11.20;99.90
20714;DHT22;10518;50.742;4.226;2023-02-15T11:56:18;11.40;99.90
20714;DHT22;10518;50.742;4.226;2023-02-15T12:01:33;11.70;99.90
20714;DHT22;10518;50.742;4.226;2023-02-15T12:06:32;11.70;99.90
20714;DHT22;10518;50.742;4.226;2023-02-15T12:11:39;12.40;99.90
20714;DHT22;10518;50.742;4.226;2023-02-15T12:14:07;12.10;99.90
20714;DHT22;10518;50.742;4.226;2023-02-15T12:16:48;12.30;99.90
20714;DHT22;10518;50.742;4.226;2023-02-15T12:19:37;12.70;99.90
20714;DHT22;10518;50.742;4.226;2023-02-15T12:22:06;12.60;99.90
20714;DHT22;10518;50.742;4.226;2023-02-15T12:24:46;12.70;99.90
20714;DHT22;10518;50.742;4.226;2023-02-15T12:27:19;12.40;99.90
20714;DHT22;10518;50.742;4.226;2023-02-15T12:30:16;12.20;99.90
20714;DHT22;10518;50.742;4.226;2023-02-15T12:36:29;12.60;99.90
20714;DHT22;10518;50.742;4.226;2023-02-15T12:41:44;12.40;99.90
20714;DHT22;10518;50.742;4.226;2023-02-15T12:44:20;12.90;99.90
20714;DHT22;10518;50.742;4.226;2023-02-15T12:47:01;13.10;99.90
20714;DHT22;10518;50.742;4.226;2023-02-15T12:49:33;13.30;99.90
20714;DHT22;10518;50.742;4.226;2023-02-15T12:52:01;13.10;99.90
20714;DHT22;10518;50.742;4.226;2023-02-15T12:54:33;12.60;99.90
20714;DHT22;10518;50.742;4.226;2023-02-15T12:57:29;12.40;99.90
20714;DHT22;10518;50.742;4.226;2023-02-15T13:07:57;12.30;99.90
20714;DHT22;10518;50.742;4.226;2023-02-15T13:11:09;12.10;99.90
20714;DHT22;10518;50.742;4.226;2023-02-15T13:13:20;12.10;99.90
20714;DHT22;10518;50.742;4.226;2023-02-15T13:15:51;12.10;99.90
20714;DHT22;10518;50.742;4.226;2023-02-15T13:18:25;12.10;99.90
20714;DHT22;10518;50.742;4.226;2023-02-15T13:20:52;12.10;99.90
20714;DHT22;10518;50.742;4.226;2023-02-15T13:23:29;12.20;99.90
20714;DHT22;10518;50.742;4.226;2023-02-15T13:25:59;12.40;99.90
20714;DHT22;10518;50.742;4.226;2023-02-15T13:28:41;12.40;99.90
20714;DHT22;10518;50.742;4.226;2023-02-15T13:31:19;12.80;99.90
20714;DHT22;10518;50.742;4.226;2023-02-15T13:33:53;13.20;99.90
20714;DHT22;10518;50.742;4.226;2023-02-15T13:41:34;13.20;99.90
20714;DHT22;10518;50.742;4.226;2023-02-15T13:49:46;12.60;99.90
20714;DHT22;10518;50.742;4.226;2023-02-15T13:52:22;13.10;99.90
20714;DHT22;10518;50.742;4.226;2023-02-15T14:00:28;13.60;99.90
20714;DHT22;10518;50.742;4.226;2023-02-15T14:08:39;13.00;99.90
20714;DHT22;10518;50.742;4.226;2023-02-15T14:16:54;12.60;99.90
20714;DHT22;10518;50.742;4.226;2023-02-15T14:19:35;12.50;99.90
20714;DHT22;10518;50.742;4.226;2023-02-15T14:24:44;12.70;99.90
20714;DHT22;10518;50.742;4.226;2023-02-15T14:30:20;12.60;99.90
20714;DHT22;10518;50.742;4.226;2023-02-15T14:32:49;12.50;99.90
20714;DHT22;10518;50.742;4.226;2023-02-15T14:35:24;12.60;99.90
20714;DHT22;10518;50.742;4.226;2023-02-15T14:43:33;12.70;99.90
20714;DHT22;10518;50.742;4.226;2023-02-15T14:46:21;13.00;99.90
20714;DHT22;10518;50.742;4.226;2023-02-15T14:49:04;13.20;99.90
20714;DHT22;10518;50.742;4.226;2023-02-15T14:56:41;13.00;99.90
20714;DHT22;10518;50.742;4.226;2023-02-15T15:01:42;13.50;99.90
20714;DHT22;10518;50.742;4.226;2023-02-15T15:04:23;13.20;99.90
20714;DHT22;10518;50.742;4.226;2023-02-15T15:09:29;12.90;99.90
20714;DHT22;10518;50.742;4.226;2023-02-15T15:14:40;13.00;99.90
20714;DHT22;10518;50.742;4.226;2023-02-15T15:17:09;12.90;99.90
20714;DHT22;10518;50.742;4.226;2023-02-15T15:22:24;12.80;99.90
20714;DHT22;10518;50.742;4.226;2023-02-15T15:25:41;13.00;99.90
20714;DHT22;10518;50.742;4.226;2023-02-15T15:30:48;13.30;99.90
20714;DHT22;10518;50.742;4.226;2023-02-15T15:41:41;12.50;99.90
20714;DHT22;10518;50.742;4.226;2023-02-15T15:49:55;13.00;99.90
20714;DHT22;10518;50.742;4.226;2023-02-15T15:52:21;12.90;99.90
20714;DHT22;10518;50.742;4.226;2023-02-15T15:54:50;12.80;99.90
20714;DHT22;10518;50.742;4.226;2023-02-15T15:59:49;12.20;99.90
20714;DHT22;10518;50.742;4.226;2023-02-15T16:02:16;12.00;99.90
20714;DHT22;10518;50.742;4.226;2023-02-15T16:04:42;11.90;99.90
20714;DHT22;10518;50.742;4.226;2023-02-15T16:10:02;11.70;99.90
20714;DHT22;10518;50.742;4.226;2023-02-15T16:12:30;11.60;99.90
20714;DHT22;10518;50.742;4.226;2023-02-15T16:14:57;11.70;99.90
20714;DHT22;10518;50.742;4.226;2023-02-15T16:17:26;11.60;99.90
20714;DHT22;10518;50.742;4.226;2023-02-15T16:20:03;11.40;99.90
20714;DHT22;10518;50.742;4.226;2023-02-15T16:22:32;11.30;99.90
20714;DHT22;10518;50.742;4.226;2023-02-15T16:25:19;11.20;99.90
20714;DHT22;10518;50.742;4.226;2023-02-15T16:27:50;11.00;99.90
20714;DHT22;10518;50.742;4.226;2023-02-15T16:30:29;10.90;99.90
20714;DHT22;10518;50.742;4.226;2023-02-15T16:33:05;10.90;99.90
20714;DHT22;10518;50.742;4.226;2023-02-15T16:35:32;10.80;99.90
20714;DHT22;10518;50.742;4.226;2023-02-15T16:37:58;10.60;99.90
20714;DHT22;10518;50.742;4.226;2023-02-15T16:42:55;10.40;99.90
20714;DHT22;10518;50.742;4.226;2023-02-15T16:45:25;10.30;99.90
20714;DHT22;10518;50.742;4.226;2023-02-15T16:47:55;10.20;99.90
20714;DHT22;10518;50.742;4.226;2023-02-15T16:50:26;10.00;99.90
20714;DHT22;10518;50.742;4.226;2023-02-15T16:52:54;9.90;99.90
20714;DHT22;10518;50.742;4.226;2023-02-15T16:55:26;9.80;99.90
20714;DHT22;10518;50.742;4.226;2023-02-15T16:57:59;9.70;99.90
20714;DHT22;10518;50.742;4.226;2023-02-15T17:00:30;9.60;99.90
20714;DHT22;10518;50.742;4.226;2023-02-15T17:05:42;9.40;99.90
20714;DHT22;10518;50.742;4.226;2023-02-15T17:08:24;9.30;99.90
20714;DHT22;10518;50.742;4.226;2023-02-15T17:13:26;9.10;99.90
20714;DHT22;10518;50.742;4.226;2023-02-15T17:18:26;9.00;99.90
20714;DHT22;10518;50.742;4.226;2023-02-15T17:20:55;9.00;99.90
20714;DHT22;10518;50.742;4.226;2023-02-15T17:26:33;9.20;99.90
20714;DHT22;10518;50.742;4.226;2023-02-15T17:29:10;9.50;99.90
20714;DHT22;10518;50.742;4.226;2023-02-15T17:31:36;9.30;99.90
20714;DHT22;10518;50.742;4.226;2023-02-15T17:34:02;9.30;99.90
20714;DHT22;10518;50.742;4.226;2023-02-15T17:36:30;9.30;99.90
20714;DHT22;10518;50.742;4.226;2023-02-15T17:39:00;9.10;99.90
20714;DHT22;10518;50.742;4.226;2023-02-15T17:41:32;9.10;99.90
20714;DHT22;10518;50.742;4.226;2023-02-15T17:44:00;9.00;99.90
20714;DHT22;10518;50.742;4.226;2023-02-15T17:46:27;9.00;99.90
20714;DHT22;10518;50.742;4.226;2023-02-15T17:48:55;8.90;99.90
20714;DHT22;10518;50.742;4.226;2023-02-15T17:51:21;9.00;99.90
20714;DHT22;10518;50.742;4.226;2023-02-15T17:53:48;8.80;99.90
20714;DHT22;10518;50.742;4.226;2023-02-15T17:56:33;8.90;99.90
20714;DHT22;10518;50.742;4.226;2023-02-15T17:58:58;8.80;99.90
20714;DHT22;10518;50.742;4.226;2023-02-15T18:01:24;8.80;99.90
20714;DHT22;10518;50.742;4.226;2023-02-15T18:04:13;8.80;99.90
20714;DHT22;10518;50.742;4.226;2023-02-15T18:06:58;9.00;99.90
20714;DHT22;10518;50.742;4.226;2023-02-15T18:09:42;9.70;99.90
20714;DHT22;10518;50.742;4.226;2023-02-15T18:14:53;10.00;99.90
20714;DHT22;10518;50.742;4.226;2023-02-15T18:17:28;9.60;99.90
20714;DHT22;10518;50.742;4.226;2023-02-15T18:19:54;9.30;99.90
20714;DHT22;10518;50.742;4.226;2023-02-15T18:22:20;9.30;99.90
20714;DHT22;10518;50.742;4.226;2023-02-15T18:24:48;9.10;99.90
20714;DHT22;10518;50.742;4.226;2023-02-15T18:27:15;8.90;99.90
20714;DHT22;10518;50.742;4.226;2023-02-15T18:29:41;8.80;99.90
20714;DHT22;10518;50.742;4.226;2023-02-15T18:32:12;8.70;99.90
20714;DHT22;10518;50.742;4.226;2023-02-15T18:34:41;8.60;99.90
20714;DHT22;10518;50.742;4.226;2023-02-15T18:37:13;8.60;99.90
20714;DHT22;10518;50.742;4.226;2023-02-15T18:39:42;8.80;99.90
20714;DHT22;10518;50.742;4.226;2023-02-15T18:42:32;8.80;99.90
20714;DHT22;10518;50.742;4.226;2023-02-15T18:45:17;8.90;99.90
20714;DHT22;10518;50.742;4.226;2023-02-15T18:47:44;8.90;99.90
20714;DHT22;10518;50.742;4.226;2023-02-15T18:50:11;9.10;99.90
20714;DHT22;10518;50.742;4.226;2023-02-15T18:52:38;9.00;99.90
20714;DHT22;10518;50.742;4.226;2023-02-15T18:55:18;9.40;99.90
20714;DHT22;10518;50.742;4.226;2023-02-15T18:57:45;9.20;99.90
20714;DHT22;10518;50.742;4.226;2023-02-15T19:00:19;9.20;99.90
20714;DHT22;10518;50.742;4.226;2023-02-15T19:02:45;9.60;99.90
20714;DHT22;10518;50.742;4.226;2023-02-15T19:05:11;9.70;99.90
20714;DHT22;10518;50.742;4.226;2023-02-15T19:07:37;9.90;99.90
20714;DHT22;10518;50.742;4.226;2023-02-15T19:10:06;9.40;99.90
20714;DHT22;10518;50.742;4.226;2023-02-15T19:12:33;9.20;99.90
20714;DHT22;10518;50.742;4.226;2023-02-15T19:14:58;9.30;99.90
20714;DHT22;10518;50.742;4.226;2023-02-15T19:17:25;9.50;99.90
20714;DHT22;10518;50.742;4.226;2023-02-15T19:19:51;9.00;99.90
20714;DHT22;10518;50.742;4.226;2023-02-15T19:22:26;8.70;99.90
20714;DHT22;10518;50.742;4.226;2023-02-15T19:24:54;8.80;99.90